sensor_id;sensor_type;location;lat;lon;timestamp;P1;durP1;ratioP1;P2;durP2;ratioP2
53044;SDS011;38930;52.766;6.884;2022-08-04T00:01:14;9.43;;;3.47;;
53044;SDS011;38930;52.766;6.884;2022-08-04T00:07:25;7.25;;;3.15;;
53044;SDS011;38930;52.766;6.884;2022-08-04T00:10:06;8.82;;;3.75;;
53044;SDS011;38930;52.766;6.884;2022-08-04T00:12:33;9.05;;;3.72;;
53044;SDS011;38930;52.766;6.884;2022-08-04T00:15:05;6.55;;;3.28;;
53044;SDS011;38930;52.766;6.884;2022-08-04T00:17:38;5.97;;;2.92;;
53044;SDS011;38930;52.766;6.884;2022-08-04T00:20:06;6.32;;;3.20;;
53044;SDS011;38930;52.766;6.884;2022-08-04T00:22:34;6.40;;;3.30;;
53044;SDS011;38930;52.766;6.884;2022-08-04T00:25:04;10.30;;;3.88;;
53044;SDS011;38930;52.766;6.884;2022-08-04T00:27:30;8.35;;;3.28;;
53044;SDS011;38930;52.766;6.884;2022-08-04T00:29:57;7.72;;;3.55;;
53044;SDS011;38930;52.766;6.884;2022-08-04T00:32:24;8.93;;;3.80;;
53044;SDS011;38930;52.766;6.884;2022-08-04T00:34:51;5.72;;;3.22;;
53044;SDS011;38930;52.766;6.884;2022-08-04T00:37:22;8.63;;;3.40;;
53044;SDS011;38930;52.766;6.884;2022-08-04T00:39:50;7.50;;;3.08;;
53044;SDS011;38930;52.766;6.884;2022-08-04T00:47:57;7.20;;;3.15;;
53044;SDS011;38930;52.766;6.884;2022-08-04T00:50:54;9.10;;;3.67;;
53044;SDS011;38930;52.766;6.884;2022-08-04T00:53:30;5.53;;;3.05;;
53044;SDS011;38930;52.766;6.884;2022-08-04T00:56:48;7.45;;;3.90;;
53044;SDS011;38930;52.766;6.884;2022-08-04T00:59:10;7.55;;;3.47;;
53044;SDS011;38930;52.766;6.884;2022-08-04T01:01:54;10.55;;;3.70;;
53044;SDS011;38930;52.766;6.884;2022-08-04T01:04:48;5.80;;;4.00;;
53044;SDS011;38930;52.766;6.884;2022-08-04T01:10:07;10.63;;;4.43;;
53044;SDS011;38930;52.766;6.884;2022-08-04T01:16:03;10.15;;;4.28;;
53044;SDS011;38930;52.766;6.884;2022-08-04T01:18:21;8.63;;;3.83;;
53044;SDS011;38930;52.766;6.884;2022-08-04T01:26:56;8.52;;;4.00;;
53044;SDS011;38930;52.766;6.884;2022-08-04T01:30:07;9.00;;;4.13;;
53044;SDS011;38930;52.766;6.884;2022-08-04T01:32:33;10.02;;;3.85;;
53044;SDS011;38930;52.766;6.884;2022-08-04T01:35:23;9.02;;;4.43;;
53044;SDS011;38930;52.766;6.884;2022-08-04T01:38:16;11.40;;;4.38;;
53044;SDS011;38930;52.766;6.884;2022-08-04T01:40:52;7.25;;;4.22;;
53044;SDS011;38930;52.766;6.884;2022-08-04T01:43:20;10.45;;;4.28;;
53044;SDS011;38930;52.766;6.884;2022-08-04T01:45:53;11.10;;;4.50;;
53044;SDS011;38930;52.766;6.884;2022-08-04T01:48:23;7.07;;;4.35;;
53044;SDS011;38930;52.766;6.884;2022-08-04T01:50:50;7.78;;;4.30;;
53044;SDS011;38930;52.766;6.884;2022-08-04T01:53:18;7.32;;;4.07;;
53044;SDS011;38930;52.766;6.884;2022-08-04T01:55:47;7.03;;;4.15;;
53044;SDS011;38930;52.766;6.884;2022-08-04T01:58:19;8.10;;;4.00;;
53044;SDS011;38930;52.766;6.884;2022-08-04T02:01:04;6.40;;;4.40;;
53044;SDS011;38930;52.766;6.884;2022-08-04T02:03:32;7.88;;;3.92;;
53044;SDS011;38930;52.766;6.884;2022-08-04T02:11:36;7.07;;;4.07;;
53044;SDS011;38930;52.766;6.884;2022-08-04T02:14:21;9.43;;;4.60;;
53044;SDS011;38930;52.766;6.884;2022-08-04T02:17:13;10.30;;;4.38;;
53044;SDS011;38930;52.766;6.884;2022-08-04T02:22:16;9.00;;;4.50;;
53044;SDS011;38930;52.766;6.884;2022-08-04T02:24:48;9.15;;;4.28;;
53044;SDS011;38930;52.766;6.884;2022-08-04T02:27:18;8.15;;;4.22;;
53044;SDS011;38930;52.766;6.884;2022-08-04T02:29:50;9.07;;;4.75;;
53044;SDS011;38930;52.766;6.884;2022-08-04T02:32:26;10.43;;;5.20;;
53044;SDS011;38930;52.766;6.884;2022-08-04T02:34:59;8.07;;;5.18;;
53044;SDS011;38930;52.766;6.884;2022-08-04T02:37:31;8.07;;;4.80;;
53044;SDS011;38930;52.766;6.884;2022-08-04T02:42:23;7.90;;;5.38;;
53044;SDS011;38930;52.766;6.884;2022-08-04T02:44:50;7.55;;;5.30;;
53044;SDS011;38930;52.766;6.884;2022-08-04T02:47:17;10.13;;;5.53;;
53044;SDS011;38930;52.766;6.884;2022-08-04T02:49:45;10.38;;;5.15;;
53044;SDS011;38930;52.766;6.884;2022-08-04T02:52:13;10.27;;;5.70;;
53044;SDS011;38930;52.766;6.884;2022-08-04T02:54:40;12.32;;;5.43;;
53044;SDS011;38930;52.766;6.884;2022-08-04T02:57:10;8.77;;;5.18;;
53044;SDS011;38930;52.766;6.884;2022-08-04T03:02:18;10.50;;;5.25;;
53044;SDS011;38930;52.766;6.884;2022-08-04T03:04:59;10.38;;;5.80;;
53044;SDS011;38930;52.766;6.884;2022-08-04T03:10:29;11.48;;;5.70;;
53044;SDS011;38930;52.766;6.884;2022-08-04T03:39:01;11.02;;;5.50;;
53044;SDS011;38930;52.766;6.884;2022-08-04T03:53:07;6.22;;;4.82;;
53044;SDS011;38930;52.766;6.884;2022-08-04T04:01:11;10.55;;;4.65;;
53044;SDS011;38930;52.766;6.884;2022-08-04T04:15:50;9.45;;;4.80;;
53044;SDS011;38930;52.766;6.884;2022-08-04T04:27:21;8.07;;;4.25;;
53044;SDS011;38930;52.766;6.884;2022-08-04T04:32:56;9.93;;;4.53;;
53044;SDS011;38930;52.766;6.884;2022-08-04T04:38:33;8.70;;;4.18;;
53044;SDS011;38930;52.766;6.884;2022-08-04T04:46:58;8.40;;;4.18;;
53044;SDS011;38930;52.766;6.884;2022-08-04T04:49:53;10.68;;;4.57;;
53044;SDS011;38930;52.766;6.884;2022-08-04T04:52:29;10.75;;;4.18;;
53044;SDS011;38930;52.766;6.884;2022-08-04T04:55:20;10.75;;;4.45;;
53044;SDS011;38930;52.766;6.884;2022-08-04T04:57:51;10.20;;;4.80;;
53044;SDS011;38930;52.766;6.884;2022-08-04T05:00:20;11.35;;;4.72;;
53044;SDS011;38930;52.766;6.884;2022-08-04T05:05:36;10.27;;;4.15;;
53044;SDS011;38930;52.766;6.884;2022-08-04T05:14:19;8.60;;;4.70;;
53044;SDS011;38930;52.766;6.884;2022-08-04T05:16:53;8.00;;;4.10;;
53044;SDS011;38930;52.766;6.884;2022-08-04T05:19:50;18.73;;;5.00;;
53044;SDS011;38930;52.766;6.884;2022-08-04T05:22:19;10.93;;;5.03;;
53044;SDS011;38930;52.766;6.884;2022-08-04T05:24:51;11.13;;;4.50;;
53044;SDS011;38930;52.766;6.884;2022-08-04T05:27:30;13.60;;;4.32;;
53044;SDS011;38930;52.766;6.884;2022-08-04T05:30:02;11.43;;;4.28;;
53044;SDS011;38930;52.766;6.884;2022-08-04T05:32:31;8.85;;;4.20;;
53044;SDS011;38930;52.766;6.884;2022-08-04T05:35:07;10.43;;;4.45;;
53044;SDS011;38930;52.766;6.884;2022-08-04T05:37:36;11.63;;;4.20;;
53044;SDS011;38930;52.766;6.884;2022-08-04T05:40:05;13.93;;;4.50;;
53044;SDS011;38930;52.766;6.884;2022-08-04T05:42:34;8.18;;;3.85;;
53044;SDS011;38930;52.766;6.884;2022-08-04T05:45:02;9.93;;;4.03;;
53044;SDS011;38930;52.766;6.884;2022-08-04T05:47:29;11.43;;;4.38;;
53044;SDS011;38930;52.766;6.884;2022-08-04T05:49:56;11.35;;;4.10;;
53044;SDS011;38930;52.766;6.884;2022-08-04T05:52:24;10.30;;;4.25;;
53044;SDS011;38930;52.766;6.884;2022-08-04T05:54:50;10.93;;;4.20;;
53044;SDS011;38930;52.766;6.884;2022-08-04T05:57:17;9.43;;;4.20;;
53044;SDS011;38930;52.766;6.884;2022-08-04T05:59:44;12.73;;;4.55;;
53044;SDS011;38930;52.766;6.884;2022-08-04T06:02:14;7.75;;;3.75;;
53044;SDS011;38930;52.766;6.884;2022-08-04T06:04:42;11.07;;;3.83;;
53044;SDS011;38930;52.766;6.884;2022-08-04T06:07:11;12.52;;;4.22;;
53044;SDS011;38930;52.766;6.884;2022-08-04T06:09:38;13.43;;;4.00;;
53044;SDS011;38930;52.766;6.884;2022-08-04T06:12:14;8.60;;;3.30;;
53044;SDS011;38930;52.766;6.884;2022-08-04T06:14:46;9.75;;;3.53;;
53044;SDS011;38930;52.766;6.884;2022-08-04T06:17:14;7.70;;;4.25;;
53044;SDS011;38930;52.766;6.884;2022-08-04T06:19:45;15.02;;;4.22;;
53044;SDS011;38930;52.766;6.884;2022-08-04T06:22:13;9.05;;;4.07;;
53044;SDS011;38930;52.766;6.884;2022-08-04T06:24:40;11.30;;;4.63;;
53044;SDS011;38930;52.766;6.884;2022-08-04T06:27:06;11.95;;;4.38;;
53044;SDS011;38930;52.766;6.884;2022-08-04T06:29:32;9.00;;;4.32;;
53044;SDS011;38930;52.766;6.884;2022-08-04T06:32:03;10.80;;;4.20;;
53044;SDS011;38930;52.766;6.884;2022-08-04T06:34:56;10.85;;;3.53;;
53044;SDS011;38930;52.766;6.884;2022-08-04T06:37:23;8.25;;;3.75;;
53044;SDS011;38930;52.766;6.884;2022-08-04T06:39:50;8.93;;;3.85;;
53044;SDS011;38930;52.766;6.884;2022-08-04T06:42:18;11.10;;;3.95;;
53044;SDS011;38930;52.766;6.884;2022-08-04T06:44:50;11.00;;;3.85;;
53044;SDS011;38930;52.766;6.884;2022-08-04T06:47:18;8.68;;;4.00;;
53044;SDS011;38930;52.766;6.884;2022-08-04T06:49:46;9.90;;;4.10;;
53044;SDS011;38930;52.766;6.884;2022-08-04T06:52:14;6.93;;;3.35;;
53044;SDS011;38930;52.766;6.884;2022-08-04T06:54:45;7.22;;;3.65;;
53044;SDS011;38930;52.766;6.884;2022-08-04T06:57:21;8.88;;;3.88;;
53044;SDS011;38930;52.766;6.884;2022-08-04T06:59:51;7.60;;;3.85;;
53044;SDS011;38930;52.766;6.884;2022-08-04T07:02:23;9.70;;;4.13;;
53044;SDS011;38930;52.766;6.884;2022-08-04T07:04:51;8.32;;;4.15;;
53044;SDS011;38930;52.766;6.884;2022-08-04T07:07:17;9.98;;;4.35;;
53044;SDS011;38930;52.766;6.884;2022-08-04T07:09:43;8.75;;;4.40;;
53044;SDS011;38930;52.766;6.884;2022-08-04T07:12:09;9.23;;;3.95;;
53044;SDS011;38930;52.766;6.884;2022-08-04T07:14:35;7.25;;;4.20;;
53044;SDS011;38930;52.766;6.884;2022-08-04T07:17:03;8.65;;;4.32;;
53044;SDS011;38930;52.766;6.884;2022-08-04T07:19:34;7.93;;;4.55;;
53044;SDS011;38930;52.766;6.884;2022-08-04T07:22:01;8.70;;;4.25;;
53044;SDS011;38930;52.766;6.884;2022-08-04T07:24:31;7.65;;;4.88;;
53044;SDS011;38930;52.766;6.884;2022-08-04T07:26:59;9.68;;;4.43;;
53044;SDS011;38930;52.766;6.884;2022-08-04T07:29:25;8.25;;;4.20;;
53044;SDS011;38930;52.766;6.884;2022-08-04T07:34:19;9.00;;;4.53;;
53044;SDS011;38930;52.766;6.884;2022-08-04T07:36:46;10.32;;;4.18;;
53044;SDS011;38930;52.766;6.884;2022-08-04T07:39:13;9.10;;;4.35;;
53044;SDS011;38930;52.766;6.884;2022-08-04T07:41:40;8.07;;;3.80;;
53044;SDS011;38930;52.766;6.884;2022-08-04T07:44:07;7.70;;;4.40;;
53044;SDS011;38930;52.766;6.884;2022-08-04T07:46:34;8.55;;;4.80;;
53044;SDS011;38930;52.766;6.884;2022-08-04T07:49:02;10.00;;;3.85;;
53044;SDS011;38930;52.766;6.884;2022-08-04T07:51:29;10.45;;;4.57;;
53044;SDS011;38930;52.766;6.884;2022-08-04T07:56:21;9.30;;;3.83;;
53044;SDS011;38930;52.766;6.884;2022-08-04T07:58:47;5.90;;;4.18;;
53044;SDS011;38930;52.766;6.884;2022-08-04T08:01:13;11.83;;;4.20;;
53044;SDS011;38930;52.766;6.884;2022-08-04T08:03:39;9.73;;;4.35;;
53044;SDS011;38930;52.766;6.884;2022-08-04T08:08:31;7.43;;;3.80;;
53044;SDS011;38930;52.766;6.884;2022-08-04T08:10:56;8.43;;;3.57;;
53044;SDS011;38930;52.766;6.884;2022-08-04T08:13:22;8.68;;;3.55;;
53044;SDS011;38930;52.766;6.884;2022-08-04T08:15:49;8.50;;;3.75;;
53044;SDS011;38930;52.766;6.884;2022-08-04T08:18:16;9.10;;;3.78;;
53044;SDS011;38930;52.766;6.884;2022-08-04T08:20:45;12.43;;;3.90;;
53044;SDS011;38930;52.766;6.884;2022-08-04T08:23:11;8.32;;;3.55;;
53044;SDS011;38930;52.766;6.884;2022-08-04T08:25:36;8.07;;;3.35;;
53044;SDS011;38930;52.766;6.884;2022-08-04T08:28:03;6.47;;;3.38;;
53044;SDS011;38930;52.766;6.884;2022-08-04T08:30:31;13.73;;;3.90;;
53044;SDS011;38930;52.766;6.884;2022-08-04T08:32:57;8.13;;;3.30;;
53044;SDS011;38930;52.766;6.884;2022-08-04T08:35:25;8.77;;;3.30;;
53044;SDS011;38930;52.766;6.884;2022-08-04T08:37:56;8.85;;;2.65;;
53044;SDS011;38930;52.766;6.884;2022-08-04T08:40:32;9.30;;;3.30;;
53044;SDS011;38930;52.766;6.884;2022-08-04T08:45:56;6.47;;;2.90;;
53044;SDS011;38930;52.766;6.884;2022-08-04T08:56:56;5.97;;;2.63;;
53044;SDS011;38930;52.766;6.884;2022-08-04T08:59:49;9.85;;;2.65;;
53044;SDS011;38930;52.766;6.884;2022-08-04T09:05:09;7.85;;;2.85;;
53044;SDS011;38930;52.766;6.884;2022-08-04T09:10:49;13.52;;;3.60;;
53044;SDS011;38930;52.766;6.884;2022-08-04T09:13:36;9.18;;;2.67;;
53044;SDS011;38930;52.766;6.884;2022-08-04T09:16:21;8.50;;;2.70;;
53044;SDS011;38930;52.766;6.884;2022-08-04T09:21:33;9.23;;;3.00;;
53044;SDS011;38930;52.766;6.884;2022-08-04T09:24:08;5.47;;;2.47;;
53044;SDS011;38930;52.766;6.884;2022-08-04T09:26:59;7.95;;;2.60;;
53044;SDS011;38930;52.766;6.884;2022-08-04T09:35:15;8.63;;;2.50;;
53044;SDS011;38930;52.766;6.884;2022-08-04T09:37:51;7.47;;;2.20;;
53044;SDS011;38930;52.766;6.884;2022-08-04T09:40:25;8.77;;;2.35;;
53044;SDS011;38930;52.766;6.884;2022-08-04T09:46:14;9.27;;;2.00;;
53044;SDS011;38930;52.766;6.884;2022-08-04T09:48:49;6.60;;;2.15;;
53044;SDS011;38930;52.766;6.884;2022-08-04T09:56:56;6.60;;;2.03;;
53044;SDS011;38930;52.766;6.884;2022-08-04T10:02:06;8.77;;;2.30;;
53044;SDS011;38930;52.766;6.884;2022-08-04T10:04:38;10.25;;;2.63;;
53044;SDS011;38930;52.766;6.884;2022-08-04T10:16:45;6.78;;;2.22;;
53044;SDS011;38930;52.766;6.884;2022-08-04T10:18:58;10.88;;;2.40;;
53044;SDS011;38930;52.766;6.884;2022-08-04T10:26:59;5.90;;;2.30;;
53044;SDS011;38930;52.766;6.884;2022-08-04T10:29:44;8.93;;;2.53;;
53044;SDS011;38930;52.766;6.884;2022-08-04T10:32:13;5.93;;;2.30;;
53044;SDS011;38930;52.766;6.884;2022-08-04T10:35:00;6.00;;;2.60;;
53044;SDS011;38930;52.766;6.884;2022-08-04T10:37:35;7.50;;;2.90;;
53044;SDS011;38930;52.766;6.884;2022-08-04T10:40:09;10.30;;;2.83;;
53044;SDS011;38930;52.766;6.884;2022-08-04T10:43:01;5.95;;;2.50;;
53044;SDS011;38930;52.766;6.884;2022-08-04T10:45:37;7.90;;;2.78;;
53044;SDS011;38930;52.766;6.884;2022-08-04T10:50:50;7.03;;;2.70;;
53044;SDS011;38930;52.766;6.884;2022-08-04T10:53:37;7.97;;;2.80;;
53044;SDS011;38930;52.766;6.884;2022-08-04T10:56:52;7.78;;;2.72;;
53044;SDS011;38930;52.766;6.884;2022-08-04T10:59:33;6.15;;;2.53;;
53044;SDS011;38930;52.766;6.884;2022-08-04T11:08:04;5.80;;;2.90;;
53044;SDS011;38930;52.766;6.884;2022-08-04T11:10:36;8.10;;;3.35;;
53044;SDS011;38930;52.766;6.884;2022-08-04T11:13:11;5.82;;;2.80;;
53044;SDS011;38930;52.766;6.884;2022-08-04T11:15:41;7.50;;;2.95;;
53044;SDS011;38930;52.766;6.884;2022-08-04T11:18:22;6.72;;;3.00;;
53044;SDS011;38930;52.766;6.884;2022-08-04T11:21:10;5.93;;;3.10;;
53044;SDS011;38930;52.766;6.884;2022-08-04T11:23:43;8.93;;;3.10;;
53044;SDS011;38930;52.766;6.884;2022-08-04T11:29:33;5.90;;;3.08;;
53044;SDS011;38930;52.766;6.884;2022-08-04T11:32:36;11.85;;;3.25;;
53044;SDS011;38930;52.766;6.884;2022-08-04T11:38:24;6.95;;;2.38;;
53044;SDS011;38930;52.766;6.884;2022-08-04T11:41:10;6.72;;;1.98;;
53044;SDS011;38930;52.766;6.884;2022-08-04T11:43:59;7.55;;;2.45;;
53044;SDS011;38930;52.766;6.884;2022-08-04T11:46:29;7.28;;;1.90;;
53044;SDS011;38930;52.766;6.884;2022-08-04T11:49:14;4.93;;;2.25;;
53044;SDS011;38930;52.766;6.884;2022-08-04T11:51:48;4.07;;;1.80;;
53044;SDS011;38930;52.766;6.884;2022-08-04T11:54:15;7.70;;;1.80;;
53044;SDS011;38930;52.766;6.884;2022-08-04T11:56:43;5.00;;;1.70;;
53044;SDS011;38930;52.766;6.884;2022-08-04T11:59:09;5.45;;;1.50;;
53044;SDS011;38930;52.766;6.884;2022-08-04T12:06:58;7.32;;;1.55;;
53044;SDS011;38930;52.766;6.884;2022-08-04T12:17:21;4.43;;;2.08;;
53044;SDS011;38930;52.766;6.884;2022-08-04T12:19:52;5.80;;;1.80;;
53044;SDS011;38930;52.766;6.884;2022-08-04T12:22:22;6.72;;;1.70;;
53044;SDS011;38930;52.766;6.884;2022-08-04T12:25:00;5.45;;;1.85;;
53044;SDS011;38930;52.766;6.884;2022-08-04T12:30:10;3.45;;;1.33;;
53044;SDS011;38930;52.766;6.884;2022-08-04T12:32:47;4.30;;;1.60;;
53044;SDS011;38930;52.766;6.884;2022-08-04T12:35:20;4.53;;;1.90;;
53044;SDS011;38930;52.766;6.884;2022-08-04T12:37:57;9.85;;;1.67;;
53044;SDS011;38930;52.766;6.884;2022-08-04T12:40:38;5.97;;;1.52;;
53044;SDS011;38930;52.766;6.884;2022-08-04T12:46:24;5.10;;;1.67;;
53044;SDS011;38930;52.766;6.884;2022-08-04T12:48:34;3.72;;;1.38;;
53044;SDS011;38930;52.766;6.884;2022-08-04T12:51:01;6.00;;;1.65;;
53044;SDS011;38930;52.766;6.884;2022-08-04T12:53:34;9.60;;;1.80;;
53044;SDS011;38930;52.766;6.884;2022-08-04T12:56:03;7.90;;;1.85;;
53044;SDS011;38930;52.766;6.884;2022-08-04T12:58:31;4.85;;;1.67;;
53044;SDS011;38930;52.766;6.884;2022-08-04T13:01:02;5.88;;;1.90;;
53044;SDS011;38930;52.766;6.884;2022-08-04T13:03:38;9.15;;;1.90;;
53044;SDS011;38930;52.766;6.884;2022-08-04T13:06:09;7.20;;;2.35;;
53044;SDS011;38930;52.766;6.884;2022-08-04T13:08:38;5.53;;;1.80;;
53044;SDS011;38930;52.766;6.884;2022-08-04T13:11:05;6.07;;;1.70;;
53044;SDS011;38930;52.766;6.884;2022-08-04T13:13:33;6.32;;;2.03;;
53044;SDS011;38930;52.766;6.884;2022-08-04T13:16:03;5.13;;;1.80;;
53044;SDS011;38930;52.766;6.884;2022-08-04T13:18:34;4.93;;;1.60;;
53044;SDS011;38930;52.766;6.884;2022-08-04T13:21:11;6.00;;;1.77;;
53044;SDS011;38930;52.766;6.884;2022-08-04T13:23:37;6.70;;;1.80;;
53044;SDS011;38930;52.766;6.884;2022-08-04T13:26:04;5.18;;;1.75;;
53044;SDS011;38930;52.766;6.884;2022-08-04T13:28:31;3.75;;;1.30;;
53044;SDS011;38930;52.766;6.884;2022-08-04T13:30:59;6.53;;;1.55;;
53044;SDS011;38930;52.766;6.884;2022-08-04T13:33:28;3.38;;;1.60;;
53044;SDS011;38930;52.766;6.884;2022-08-04T13:35:55;6.10;;;1.50;;
53044;SDS011;38930;52.766;6.884;2022-08-04T13:38:25;5.53;;;1.40;;
53044;SDS011;38930;52.766;6.884;2022-08-04T13:40:55;3.72;;;1.70;;
53044;SDS011;38930;52.766;6.884;2022-08-04T13:43:25;2.95;;;1.30;;
53044;SDS011;38930;52.766;6.884;2022-08-04T13:46:00;4.45;;;1.58;;
53044;SDS011;38930;52.766;6.884;2022-08-04T13:48:35;4.75;;;1.50;;
53044;SDS011;38930;52.766;6.884;2022-08-04T13:51:05;5.85;;;1.63;;
53044;SDS011;38930;52.766;6.884;2022-08-04T13:53:34;3.45;;;1.40;;
53044;SDS011;38930;52.766;6.884;2022-08-04T13:56:02;3.13;;;1.50;;
53044;SDS011;38930;52.766;6.884;2022-08-04T13:58:30;4.05;;;1.30;;
53044;SDS011;38930;52.766;6.884;2022-08-04T14:00:59;4.53;;;1.65;;
53044;SDS011;38930;52.766;6.884;2022-08-04T14:03:38;5.32;;;1.52;;
53044;SDS011;38930;52.766;6.884;2022-08-04T14:06:09;3.05;;;1.30;;
53044;SDS011;38930;52.766;6.884;2022-08-04T14:08:51;3.75;;;1.30;;
53044;SDS011;38930;52.766;6.884;2022-08-04T14:11:30;2.92;;;1.35;;
53044;SDS011;38930;52.766;6.884;2022-08-04T14:13:59;6.30;;;1.58;;
53044;SDS011;38930;52.766;6.884;2022-08-04T14:16:26;2.65;;;1.08;;
53044;SDS011;38930;52.766;6.884;2022-08-04T14:18:58;4.80;;;1.50;;
53044;SDS011;38930;52.766;6.884;2022-08-04T14:21:25;5.40;;;1.50;;
53044;SDS011;38930;52.766;6.884;2022-08-04T14:23:53;5.30;;;1.30;;
53044;SDS011;38930;52.766;6.884;2022-08-04T14:26:24;2.78;;;1.17;;
53044;SDS011;38930;52.766;6.884;2022-08-04T14:28:52;3.20;;;1.35;;
53044;SDS011;38930;52.766;6.884;2022-08-04T14:31:21;3.58;;;1.20;;
53044;SDS011;38930;52.766;6.884;2022-08-04T14:33:50;4.97;;;1.58;;
53044;SDS011;38930;52.766;6.884;2022-08-04T14:36:17;4.45;;;1.50;;
53044;SDS011;38930;52.766;6.884;2022-08-04T14:38:48;3.20;;;1.35;;
53044;SDS011;38930;52.766;6.884;2022-08-04T14:41:25;6.93;;;1.30;;
53044;SDS011;38930;52.766;6.884;2022-08-04T14:43:54;2.65;;;1.02;;
53044;SDS011;38930;52.766;6.884;2022-08-04T14:46:24;2.88;;;1.20;;
53044;SDS011;38930;52.766;6.884;2022-08-04T14:49:02;3.13;;;1.40;;
53044;SDS011;38930;52.766;6.884;2022-08-04T14:51:36;2.58;;;1.10;;
53044;SDS011;38930;52.766;6.884;2022-08-04T14:54:10;4.95;;;1.15;;
53044;SDS011;38930;52.766;6.884;2022-08-04T14:56:38;2.80;;;1.00;;
53044;SDS011;38930;52.766;6.884;2022-08-04T14:59:09;4.40;;;1.10;;
53044;SDS011;38930;52.766;6.884;2022-08-04T15:01:36;2.85;;;1.05;;
53044;SDS011;38930;52.766;6.884;2022-08-04T15:04:03;2.42;;;0.90;;
53044;SDS011;38930;52.766;6.884;2022-08-04T15:06:30;3.95;;;1.10;;
53044;SDS011;38930;52.766;6.884;2022-08-04T15:09:02;2.60;;;1.00;;
53044;SDS011;38930;52.766;6.884;2022-08-04T15:11:31;3.72;;;1.20;;
53044;SDS011;38930;52.766;6.884;2022-08-04T15:13:57;6.53;;;1.20;;
53044;SDS011;38930;52.766;6.884;2022-08-04T15:16:25;4.10;;;1.20;;
53044;SDS011;38930;52.766;6.884;2022-08-04T15:18:54;2.15;;;0.98;;
53044;SDS011;38930;52.766;6.884;2022-08-04T15:21:22;2.88;;;1.00;;
53044;SDS011;38930;52.766;6.884;2022-08-04T15:23:50;2.97;;;0.95;;
53044;SDS011;38930;52.766;6.884;2022-08-04T15:26:21;3.10;;;1.02;;
53044;SDS011;38930;52.766;6.884;2022-08-04T15:29:50;2.15;;;1.17;;
53044;SDS011;38930;52.766;6.884;2022-08-04T15:32:05;4.63;;;1.15;;
53044;SDS011;38930;52.766;6.884;2022-08-04T15:37:17;1.73;;;1.10;;
53044;SDS011;38930;52.766;6.884;2022-08-04T15:40:08;3.47;;;1.45;;
53044;SDS011;38930;52.766;6.884;2022-08-04T15:42:37;3.10;;;0.98;;
53044;SDS011;38930;52.766;6.884;2022-08-04T15:47:38;3.47;;;1.30;;
53044;SDS011;38930;52.766;6.884;2022-08-04T15:50:10;2.67;;;1.00;;
53044;SDS011;38930;52.766;6.884;2022-08-04T15:55:34;5.68;;;4.57;;
53044;SDS011;38930;52.766;6.884;2022-08-04T15:58:10;4.40;;;2.22;;
53044;SDS011;38930;52.766;6.884;2022-08-04T16:08:30;6.75;;;5.95;;
53044;SDS011;38930;52.766;6.884;2022-08-04T16:11:38;5.25;;;4.60;;
53044;SDS011;38930;52.766;6.884;2022-08-04T16:14:06;4.43;;;1.42;;
53044;SDS011;38930;52.766;6.884;2022-08-04T16:21:50;3.65;;;0.95;;
53044;SDS011;38930;52.766;6.884;2022-08-04T16:24:21;2.30;;;1.10;;
53044;SDS011;38930;52.766;6.884;2022-08-04T16:26:59;3.38;;;1.40;;
53044;SDS011;38930;52.766;6.884;2022-08-04T16:34:41;2.63;;;1.08;;
53044;SDS011;38930;52.766;6.884;2022-08-04T16:37:10;2.15;;;1.10;;
53044;SDS011;38930;52.766;6.884;2022-08-04T16:39:37;2.70;;;0.90;;
53044;SDS011;38930;52.766;6.884;2022-08-04T16:42:27;3.08;;;1.00;;
53044;SDS011;38930;52.766;6.884;2022-08-04T16:50:20;3.00;;;1.10;;
53044;SDS011;38930;52.766;6.884;2022-08-04T16:52:50;4.50;;;0.90;;
53044;SDS011;38930;52.766;6.884;2022-08-04T16:55:18;2.88;;;1.10;;
53044;SDS011;38930;52.766;6.884;2022-08-04T16:57:51;3.53;;;1.00;;
53044;SDS011;38930;52.766;6.884;2022-08-04T17:00:33;2.20;;;1.00;;
53044;SDS011;38930;52.766;6.884;2022-08-04T17:03:00;2.00;;;1.00;;
53044;SDS011;38930;52.766;6.884;2022-08-04T17:05:28;3.03;;;1.17;;
53044;SDS011;38930;52.766;6.884;2022-08-04T17:07:55;1.85;;;0.90;;
53044;SDS011;38930;52.766;6.884;2022-08-04T17:15:50;3.25;;;1.05;;
53044;SDS011;38930;52.766;6.884;2022-08-04T17:18:18;4.20;;;1.17;;
53044;SDS011;38930;52.766;6.884;2022-08-04T17:20:46;3.35;;;1.20;;
53044;SDS011;38930;52.766;6.884;2022-08-04T17:23:25;4.78;;;1.48;;
53044;SDS011;38930;52.766;6.884;2022-08-04T17:26:18;4.60;;;1.58;;
53044;SDS011;38930;52.766;6.884;2022-08-04T17:28:49;5.25;;;1.50;;
53044;SDS011;38930;52.766;6.884;2022-08-04T17:31:16;6.00;;;1.80;;
53044;SDS011;38930;52.766;6.884;2022-08-04T17:36:10;5.63;;;1.70;;
53044;SDS011;38930;52.766;6.884;2022-08-04T17:38:37;3.63;;;1.70;;
53044;SDS011;38930;52.766;6.884;2022-08-04T17:41:05;3.97;;;1.75;;
53044;SDS011;38930;52.766;6.884;2022-08-04T17:43:37;5.15;;;1.52;;
53044;SDS011;38930;52.766;6.884;2022-08-04T17:46:20;4.55;;;1.40;;
53044;SDS011;38930;52.766;6.884;2022-08-04T17:49:05;2.83;;;1.20;;
53044;SDS011;38930;52.766;6.884;2022-08-04T17:51:32;5.60;;;1.45;;
53044;SDS011;38930;52.766;6.884;2022-08-04T17:54:02;4.65;;;1.20;;
53044;SDS011;38930;52.766;6.884;2022-08-04T17:56:30;2.88;;;1.30;;
53044;SDS011;38930;52.766;6.884;2022-08-04T18:04:23;2.27;;;1.10;;
53044;SDS011;38930;52.766;6.884;2022-08-04T18:07:07;2.78;;;1.10;;
53044;SDS011;38930;52.766;6.884;2022-08-04T18:09:35;3.08;;;1.20;;
53044;SDS011;38930;52.766;6.884;2022-08-04T18:12:04;4.93;;;1.10;;
53044;SDS011;38930;52.766;6.884;2022-08-04T18:17:10;3.05;;;1.10;;
53044;SDS011;38930;52.766;6.884;2022-08-04T18:19:49;3.03;;;1.20;;
53044;SDS011;38930;52.766;6.884;2022-08-04T18:22:16;3.78;;;1.02;;
53044;SDS011;38930;52.766;6.884;2022-08-04T18:24:44;3.60;;;1.20;;
53044;SDS011;38930;52.766;6.884;2022-08-04T18:27:09;3.33;;;1.10;;
53044;SDS011;38930;52.766;6.884;2022-08-04T18:29:35;2.50;;;1.10;;
53044;SDS011;38930;52.766;6.884;2022-08-04T18:32:03;2.45;;;1.20;;
53044;SDS011;38930;52.766;6.884;2022-08-04T18:34:28;1.93;;;1.10;;
53044;SDS011;38930;52.766;6.884;2022-08-04T18:36:54;2.97;;;1.30;;
53044;SDS011;38930;52.766;6.884;2022-08-04T18:39:20;3.88;;;1.20;;
53044;SDS011;38930;52.766;6.884;2022-08-04T18:41:49;2.53;;;1.25;;
53044;SDS011;38930;52.766;6.884;2022-08-04T18:44:15;2.60;;;1.33;;
53044;SDS011;38930;52.766;6.884;2022-08-04T18:46:41;2.78;;;1.10;;
53044;SDS011;38930;52.766;6.884;2022-08-04T18:49:08;2.33;;;1.20;;
53044;SDS011;38930;52.766;6.884;2022-08-04T18:51:35;4.27;;;1.10;;
53044;SDS011;38930;52.766;6.884;2022-08-04T18:54:01;2.83;;;1.20;;
53044;SDS011;38930;52.766;6.884;2022-08-04T18:56:29;4.68;;;1.40;;
53044;SDS011;38930;52.766;6.884;2022-08-04T18:58:55;4.45;;;1.30;;
53044;SDS011;38930;52.766;6.884;2022-08-04T19:01:21;2.78;;;1.27;;
53044;SDS011;38930;52.766;6.884;2022-08-04T19:03:49;4.78;;;1.42;;
53044;SDS011;38930;52.766;6.884;2022-08-04T19:06:19;5.40;;;1.50;;
53044;SDS011;38930;52.766;6.884;2022-08-04T19:08:45;3.03;;;1.45;;
53044;SDS011;38930;52.766;6.884;2022-08-04T19:11:11;4.27;;;1.40;;
53044;SDS011;38930;52.766;6.884;2022-08-04T19:13:39;4.13;;;1.67;;
53044;SDS011;38930;52.766;6.884;2022-08-04T19:16:05;2.05;;;1.15;;
53044;SDS011;38930;52.766;6.884;2022-08-04T19:18:31;3.03;;;1.57;;
53044;SDS011;38930;52.766;6.884;2022-08-04T19:21:00;2.30;;;1.40;;
53044;SDS011;38930;52.766;6.884;2022-08-04T19:23:26;3.33;;;1.55;;
53044;SDS011;38930;52.766;6.884;2022-08-04T19:25:52;2.92;;;1.33;;
53044;SDS011;38930;52.766;6.884;2022-08-04T19:28:18;2.53;;;1.27;;
53044;SDS011;38930;52.766;6.884;2022-08-04T19:30:46;3.67;;;1.40;;
53044;SDS011;38930;52.766;6.884;2022-08-04T19:33:12;4.27;;;1.33;;
53044;SDS011;38930;52.766;6.884;2022-08-04T19:35:40;5.43;;;1.50;;
53044;SDS011;38930;52.766;6.884;2022-08-04T19:38:08;3.60;;;1.67;;